createdAt,value
2018-10-03T00:01:13.030Z,11.53
2018-10-03T00:03:41.209Z,11.53
2018-10-03T00:06:09.423Z,11.61
2018-10-03T00:08:37.635Z,11.57
2018-10-03T00:11:05.816Z,11.58
2018-10-03T00:13:34.051Z,11.61
2018-10-03T00:16:02.291Z,11.67
2018-10-03T00:18:30.555Z,11.62
2018-10-03T00:20:58.764Z,11.59
2018-10-03T00:23:26.956Z,11.57
2018-10-03T00:25:55.020Z,11.58
2018-10-03T00:28:23.309Z,11.50
2018-10-03T00:30:51.499Z,11.46
2018-10-03T00:33:19.723Z,11.58
2018-10-03T00:35:47.901Z,11.55
2018-10-03T00:38:16.700Z,11.56
2018-10-03T00:40:45.033Z,11.52
2018-10-03T00:43:13.204Z,11.53
2018-10-03T00:45:41.472Z,11.52
2018-10-03T00:48:09.815Z,11.55
2018-10-03T00:50:38.263Z,11.66
2018-10-03T00:53:06.875Z,11.59
2018-10-03T00:55:35.128Z,11.62
2018-10-03T00:58:04.000Z,11.68
2018-10-03T01:00:32.256Z,11.82
2018-10-03T01:03:00.406Z,11.75
2018-10-03T01:05:28.581Z,11.73
2018-10-03T01:07:57.025Z,11.79
2018-10-03T01:10:25.374Z,11.86
2018-10-03T01:12:53.524Z,11.76
2018-10-03T01:15:21.740Z,11.64
2018-10-03T01:17:50.325Z,11.74
2018-10-03T01:20:18.615Z,11.85
2018-10-03T01:22:46.871Z,11.79
2018-10-03T01:25:15.068Z,11.75
2018-10-03T01:27:43.248Z,11.80
2018-10-03T01:30:11.552Z,11.88
2018-10-03T01:32:39.961Z,11.97
2018-10-03T01:35:08.214Z,11.85
2018-10-03T01:37:36.483Z,11.97
2018-10-03T01:40:04.669Z,11.98
2018-10-03T01:42:32.888Z,12.03
2018-10-03T01:45:01.086Z,11.99
2018-10-03T01:47:29.315Z,11.92
2018-10-03T01:49:57.546Z,11.90
2018-10-03T01:52:25.694Z,11.89
2018-10-03T01:54:53.880Z,11.88
2018-10-03T01:57:22.060Z,11.88
2018-10-03T01:59:50.282Z,11.93
2018-10-03T02:02:18.554Z,12.05
2018-10-03T02:04:46.712Z,11.93
2018-10-03T02:07:14.931Z,12.03
2018-10-03T02:09:43.086Z,11.99
2018-10-03T02:12:11.320Z,12.08
2018-10-03T02:14:39.481Z,11.97
2018-10-03T02:17:07.605Z,12.04
2018-10-03T02:19:35.780Z,11.99
2018-10-03T02:22:03.953Z,11.96
2018-10-03T02:24:32.196Z,11.92
2018-10-03T02:27:00.563Z,11.82
2018-10-03T02:29:28.828Z,11.85
2018-10-03T02:31:56.972Z,11.90
2018-10-03T02:34:25.240Z,12.01
2018-10-03T02:36:53.428Z,11.95
2018-10-03T02:39:21.683Z,11.87
2018-10-03T02:41:49.863Z,11.95
2018-10-03T02:44:18.213Z,11.94
2018-10-03T02:46:46.379Z,11.97
2018-10-03T02:49:17.468Z,11.90
2018-10-03T02:51:45.647Z,11.91
2018-10-03T02:54:13.793Z,11.79
2018-10-03T02:56:41.916Z,11.83
2018-10-03T02:59:10.146Z,11.95
2018-10-03T03:01:39.329Z,11.88
2018-10-03T03:04:07.427Z,11.96
2018-10-03T03:06:35.608Z,11.91
2018-10-03T03:09:04.453Z,11.87
2018-10-03T03:11:32.596Z,11.89
2018-10-03T03:14:00.838Z,11.77
2018-10-03T03:16:28.972Z,11.68
2018-10-03T03:18:57.195Z,11.70
2018-10-03T03:21:25.423Z,11.77
2018-10-03T03:23:53.628Z,11.85
2018-10-03T03:26:21.909Z,11.69
2018-10-03T03:28:50.239Z,11.74
2018-10-03T03:31:19.495Z,11.74
2018-10-03T03:33:47.726Z,11.82
2018-10-03T03:36:15.939Z,11.69
2018-10-03T03:38:44.128Z,11.71
2018-10-03T03:41:12.614Z,11.83
2018-10-03T03:43:41.360Z,11.80
2018-10-03T03:46:09.732Z,11.74
2018-10-03T03:48:37.973Z,11.71
2018-10-03T03:51:06.715Z,11.74
2018-10-03T03:53:34.878Z,11.63
2018-10-03T03:56:03.033Z,11.57
2018-10-03T03:58:31.273Z,11.57
2018-10-03T04:00:59.633Z,11.48
2018-10-03T04:03:27.908Z,11.66
2018-10-03T04:05:56.181Z,11.69
2018-10-03T04:08:24.459Z,11.62
2018-10-03T04:10:52.662Z,11.76
2018-10-03T04:13:20.813Z,11.72
2018-10-03T04:15:49.243Z,11.72
2018-10-03T04:18:17.444Z,11.74
2018-10-03T04:20:45.613Z,11.78
2018-10-03T04:23:13.753Z,11.69
2018-10-03T04:25:41.944Z,11.79
2018-10-03T04:28:10.071Z,11.75
2018-10-03T04:30:38.272Z,11.71
2018-10-03T04:33:06.544Z,11.81
2018-10-03T04:35:34.916Z,11.86
2018-10-03T04:38:03.072Z,11.80
2018-10-03T04:40:31.248Z,11.87
2018-10-03T04:42:59.380Z,11.74
2018-10-03T04:45:27.636Z,11.71
2018-10-03T04:47:55.860Z,11.79
2018-10-03T04:50:24.088Z,11.92
2018-10-03T04:52:52.391Z,11.94
2018-10-03T04:55:20.622Z,12.02
2018-10-03T04:57:49.024Z,11.93
2018-10-03T05:00:17.296Z,11.94
2018-10-03T05:02:45.444Z,11.89
2018-10-03T05:05:13.579Z,11.88
2018-10-03T05:07:41.783Z,12.02
2018-10-03T05:10:09.928Z,11.85
2018-10-03T05:12:38.133Z,11.96
2018-10-03T05:15:06.348Z,11.88
2018-10-03T05:17:34.655Z,11.90
2018-10-03T05:20:02.830Z,11.74
2018-10-03T05:22:31.168Z,11.80
2018-10-03T05:24:59.408Z,11.83
2018-10-03T05:27:27.549Z,11.81
2018-10-03T05:29:55.829Z,11.87
2018-10-03T05:32:24.047Z,11.76
2018-10-03T05:34:52.313Z,11.69
2018-10-03T05:37:20.500Z,11.71
2018-10-03T05:39:48.859Z,11.83
2018-10-03T05:42:16.979Z,11.89
2018-10-03T05:44:45.219Z,11.88
2018-10-03T05:47:13.451Z,11.81
2018-10-03T05:49:41.721Z,11.83
2018-10-03T05:52:09.919Z,11.81
2018-10-03T05:54:38.115Z,11.81
2018-10-03T05:57:06.513Z,11.73
2018-10-03T05:59:34.695Z,11.85
2018-10-03T06:02:02.985Z,11.87
2018-10-03T06:04:31.144Z,11.92
2018-10-03T06:06:59.305Z,11.83
2018-10-03T06:09:27.586Z,11.91
2018-10-03T06:11:55.899Z,11.95
2018-10-03T06:14:24.088Z,11.95
2018-10-03T06:16:52.212Z,11.87
2018-10-03T06:19:20.357Z,11.81
2018-10-03T06:21:48.491Z,11.89
2018-10-03T06:24:17.878Z,11.78
2018-10-03T06:26:46.201Z,11.83
2018-10-03T06:29:14.663Z,11.82
2018-10-03T06:31:43.270Z,11.94
2018-10-03T06:34:11.463Z,11.92
2018-10-03T06:36:39.609Z,12.01
2018-10-03T06:39:08.592Z,12.15
2018-10-03T06:41:37.847Z,12.04
2018-10-03T06:44:06.308Z,12.14
2018-10-03T06:46:34.679Z,11.79
2018-10-03T06:49:02.907Z,11.84
2018-10-03T06:51:31.308Z,11.79
2018-10-03T06:53:59.568Z,11.87
2018-10-03T06:56:28.038Z,11.81
2018-10-03T06:58:56.323Z,11.78
2018-10-03T07:01:24.477Z,11.73
2018-10-03T07:03:52.671Z,11.88
2018-10-03T07:06:20.844Z,11.90
2018-10-03T07:08:49.357Z,12.03
2018-10-03T07:11:17.568Z,11.93
2018-10-03T07:13:45.780Z,12.03
2018-10-03T07:16:13.976Z,12.07
2018-10-03T07:18:42.213Z,12.16
2018-10-03T07:21:10.676Z,12.04
2018-10-03T07:23:38.924Z,12.16
2018-10-03T07:26:07.625Z,12.16
2018-10-03T07:28:35.745Z,12.07
2018-10-03T07:31:04.215Z,12.04
2018-10-03T07:33:32.492Z,12.05
2018-10-03T07:36:00.801Z,11.99
2018-10-03T07:38:28.959Z,11.91
2018-10-03T07:40:57.425Z,11.91
2018-10-03T07:43:26.019Z,11.95
2018-10-03T07:45:54.200Z,11.90
2018-10-03T07:48:22.420Z,11.83
2018-10-03T07:50:50.748Z,12.00
2018-10-03T07:53:18.921Z,11.96
2018-10-03T07:55:47.265Z,11.95
2018-10-03T07:58:15.395Z,12.04
2018-10-03T08:00:43.642Z,12.09
2018-10-03T08:03:13.144Z,12.15
2018-10-03T08:05:41.312Z,12.26
2018-10-03T08:08:09.523Z,12.27
2018-10-03T08:10:38.523Z,12.28
2018-10-03T08:13:06.797Z,12.29
2018-10-03T08:15:35.042Z,12.38
2018-10-03T08:18:03.276Z,12.39
2018-10-03T08:20:31.441Z,12.47
2018-10-03T08:22:59.655Z,12.58
2018-10-03T08:25:28.115Z,12.60
2018-10-03T08:27:56.543Z,12.65
2018-10-03T08:30:24.720Z,12.77
2018-10-03T08:32:52.997Z,12.91
2018-10-03T08:35:21.299Z,13.15
2018-10-03T08:37:49.596Z,13.17
2018-10-03T08:40:18.096Z,13.18
2018-10-03T08:42:46.308Z,13.38
2018-10-03T08:45:14.475Z,13.37
2018-10-03T08:47:42.728Z,13.58
2018-10-03T08:50:12.367Z,13.57
2018-10-03T08:52:40.607Z,13.70
2018-10-03T08:55:09.038Z,13.80
2018-10-03T08:57:37.494Z,13.73
2018-10-03T09:00:06.327Z,13.64
2018-10-03T09:02:34.615Z,13.62
2018-10-03T09:05:02.852Z,13.73
2018-10-03T09:07:31.250Z,13.81
2018-10-03T09:09:59.520Z,13.83
2018-10-03T09:12:28.017Z,13.70
2018-10-03T09:14:56.893Z,13.98
2018-10-03T09:17:25.350Z,14.11
2018-10-03T09:19:53.702Z,14.22
2018-10-03T09:22:22.843Z,14.28
2018-10-03T09:24:51.372Z,14.38
2018-10-03T09:27:19.609Z,14.32
2018-10-03T09:29:47.823Z,14.33
2018-10-03T09:32:15.980Z,14.30
2018-10-03T09:34:44.116Z,14.34
2018-10-03T09:37:12.504Z,14.57
2018-10-03T09:39:40.721Z,14.60
2018-10-03T09:42:08.920Z,14.38
2018-10-03T09:44:37.094Z,14.45
2018-10-03T09:47:05.223Z,14.61
2018-10-03T09:49:33.443Z,14.86
2018-10-03T09:52:01.572Z,14.86
2018-10-03T09:54:29.771Z,14.91
2018-10-03T09:56:57.966Z,14.96
2018-10-03T09:59:26.170Z,14.99
2018-10-03T10:01:54.317Z,14.98
2018-10-03T10:04:22.576Z,14.93
2018-10-03T10:06:51.012Z,15.30
2018-10-03T10:09:19.163Z,15.29
2018-10-03T10:11:47.457Z,15.42
2018-10-03T10:14:15.552Z,15.23
2018-10-03T10:16:43.975Z,15.55
2018-10-03T10:19:12.127Z,15.57
2018-10-03T10:21:40.292Z,15.72
2018-10-03T10:24:08.499Z,15.72
2018-10-03T10:26:36.717Z,15.74
2018-10-03T10:29:04.881Z,15.94
2018-10-03T10:31:33.191Z,15.99
2018-10-03T10:34:01.384Z,16.02
2018-10-03T10:36:29.542Z,15.92
2018-10-03T10:38:57.815Z,15.83
2018-10-03T10:41:26.230Z,16.03
2018-10-03T10:43:55.244Z,16.07
2018-10-03T10:46:23.508Z,15.89
2018-10-03T10:48:51.640Z,15.88
2018-10-03T10:51:20.105Z,16.16
2018-10-03T10:53:48.413Z,16.04
2018-10-03T10:56:16.663Z,16.32
2018-10-03T10:58:44.883Z,16.51
2018-10-03T11:01:13.133Z,16.56
2018-10-03T11:03:41.355Z,16.37
2018-10-03T11:06:09.791Z,16.18
2018-10-03T11:08:37.995Z,16.29
2018-10-03T11:11:06.150Z,16.43
2018-10-03T11:13:34.357Z,16.49
2018-10-03T11:16:02.503Z,16.26
2018-10-03T11:18:30.712Z,16.20
2018-10-03T11:20:58.871Z,16.21
2018-10-03T11:23:27.257Z,16.12
2018-10-03T11:25:56.824Z,16.37
2018-10-03T11:28:25.199Z,16.47
2018-10-03T11:30:53.390Z,16.53
2018-10-03T11:33:21.736Z,16.47
2018-10-03T11:35:49.977Z,16.42
2018-10-03T11:38:18.226Z,16.34
2018-10-03T11:40:46.469Z,16.42
2018-10-03T11:43:14.702Z,16.39
2018-10-03T11:45:42.856Z,16.49
2018-10-03T11:48:11.183Z,16.36
2018-10-03T11:50:39.592Z,16.21
2018-10-03T11:53:07.897Z,15.93
2018-10-03T11:55:36.095Z,15.79
2018-10-03T11:58:04.333Z,15.70
2018-10-03T12:00:32.584Z,15.56
2018-10-03T12:03:00.934Z,15.67
2018-10-03T12:05:29.071Z,15.97
2018-10-03T12:07:57.970Z,16.25
2018-10-03T12:10:26.251Z,16.10
2018-10-03T12:12:54.380Z,15.88
2018-10-03T12:15:22.617Z,15.81
2018-10-03T12:17:51.298Z,15.70
2018-10-03T12:20:19.959Z,15.94
2018-10-03T12:22:48.184Z,16.09
2018-10-03T12:25:16.440Z,16.02
2018-10-03T12:27:44.675Z,15.97
2018-10-03T12:30:12.816Z,15.85
2018-10-03T12:32:41.094Z,15.91
2018-10-03T12:35:09.322Z,15.95
2018-10-03T12:37:37.728Z,15.98
2018-10-03T12:40:05.953Z,15.92
2018-10-03T12:42:34.356Z,15.84
2018-10-03T12:45:02.662Z,15.90
2018-10-03T12:47:30.816Z,15.92
2018-10-03T12:49:59.473Z,16.17
2018-10-03T12:52:27.691Z,16.39
2018-10-03T12:54:55.946Z,16.13
2018-10-03T12:57:24.144Z,15.90
2018-10-03T12:59:52.431Z,15.90
2018-10-03T13:02:20.639Z,16.03
2018-10-03T13:04:48.795Z,15.94
2018-10-03T13:07:17.072Z,15.94
2018-10-03T13:09:45.384Z,16.04
2018-10-03T13:12:13.527Z,16.18
2018-10-03T13:14:41.824Z,16.00
2018-10-03T13:17:10.051Z,16.22
2018-10-03T13:19:38.259Z,16.40
2018-10-03T13:22:06.611Z,16.58
2018-10-03T13:24:34.976Z,16.76
2018-10-03T13:27:03.221Z,17.07
2018-10-03T13:29:31.584Z,17.13
2018-10-03T13:31:59.784Z,17.31
2018-10-03T13:34:28.049Z,17.36
2018-10-03T13:36:56.280Z,17.17
2018-10-03T13:39:24.504Z,17.13
2018-10-03T13:41:52.656Z,16.85
2018-10-03T13:44:20.942Z,17.08
2018-10-03T13:46:49.220Z,17.06
2018-10-03T13:49:17.302Z,17.15
2018-10-03T13:51:45.783Z,17.12
2018-10-03T13:54:14.137Z,17.13
2018-10-03T13:56:42.284Z,17.33
2018-10-03T13:59:10.488Z,17.15
2018-10-03T14:01:38.723Z,16.97
2018-10-03T14:04:07.358Z,17.18
2018-10-03T14:06:35.899Z,17.12
2018-10-03T14:09:05.060Z,17.29
2018-10-03T14:11:33.315Z,17.32
2018-10-03T14:14:01.657Z,17.19
2018-10-03T14:16:29.976Z,17.36
2018-10-03T14:18:58.264Z,17.10
2018-10-03T14:21:26.488Z,17.02
2018-10-03T14:23:55.152Z,16.96
2018-10-03T14:26:23.504Z,17.21
2018-10-03T14:28:51.728Z,17.22
2018-10-03T14:31:20.103Z,17.25
2018-10-03T14:33:48.578Z,17.13
2018-10-03T14:36:16.807Z,17.22
2018-10-03T14:38:45.080Z,17.26
2018-10-03T14:41:13.285Z,17.33
2018-10-03T14:43:41.732Z,17.13
2018-10-03T14:46:10.076Z,17.15
2018-10-03T14:48:38.287Z,17.10
2018-10-03T14:51:06.686Z,17.19
2018-10-03T14:53:35.346Z,17.06
2018-10-03T14:56:04.383Z,17.05
2018-10-03T14:58:32.995Z,16.80
2018-10-03T15:01:01.339Z,16.72
2018-10-03T15:03:29.678Z,16.77
2018-10-03T15:05:57.976Z,16.73
2018-10-03T15:08:26.098Z,16.77
2018-10-03T15:10:54.383Z,16.85
2018-10-03T15:13:22.652Z,16.83
2018-10-03T15:15:51.089Z,16.49
2018-10-03T15:18:19.562Z,16.44
2018-10-03T15:20:47.974Z,16.52
2018-10-03T15:23:16.273Z,16.56
2018-10-03T15:25:44.540Z,16.38
2018-10-03T15:28:12.674Z,16.23
2018-10-03T15:30:40.898Z,15.90
2018-10-03T15:33:09.272Z,15.86
2018-10-03T15:35:37.731Z,15.86
2018-10-03T15:38:06.308Z,15.88
2018-10-03T15:40:34.596Z,15.72
2018-10-03T15:43:02.968Z,15.71
2018-10-03T15:45:31.171Z,15.55
2018-10-03T15:47:59.296Z,15.63
2018-10-03T15:50:27.546Z,15.54
2018-10-03T15:52:55.820Z,15.68
2018-10-03T15:55:24.092Z,15.55
2018-10-03T15:57:52.428Z,15.50
2018-10-03T16:00:20.598Z,15.36
2018-10-03T16:02:48.765Z,15.38
2018-10-03T16:05:17.049Z,15.43
2018-10-03T16:07:45.348Z,15.45
2018-10-03T16:10:13.575Z,15.26
2018-10-03T16:12:41.756Z,15.02
2018-10-03T16:15:09.969Z,14.99
2018-10-03T16:17:38.155Z,14.96
2018-10-03T16:20:06.812Z,15.03
2018-10-03T16:22:34.967Z,15.12
2018-10-03T16:25:03.147Z,15.11
2018-10-03T16:27:31.299Z,14.79
2018-10-03T16:29:59.501Z,14.53
2018-10-03T16:32:27.742Z,14.55
2018-10-03T16:34:55.899Z,14.64
2018-10-03T16:37:24.174Z,14.36
2018-10-03T16:39:52.368Z,14.34
2018-10-03T16:42:20.640Z,14.29
2018-10-03T16:44:48.860Z,14.24
2018-10-03T16:47:17.109Z,14.30
2018-10-03T16:49:45.388Z,14.23
2018-10-03T16:52:13.594Z,14.13
2018-10-03T16:54:41.965Z,14.00
2018-10-03T16:57:10.159Z,13.89
2018-10-03T16:59:38.463Z,13.78
2018-10-03T17:02:06.719Z,13.62
2018-10-03T17:04:34.852Z,13.57
2018-10-03T17:07:03.169Z,13.53
2018-10-03T17:09:31.335Z,13.37
2018-10-03T17:11:59.591Z,13.30
2018-10-03T17:14:30.071Z,13.22
2018-10-03T17:16:58.419Z,13.29
2018-10-03T17:19:26.700Z,13.21
2018-10-03T17:21:55.578Z,13.11
2018-10-03T17:24:24.880Z,13.00
2018-10-03T17:26:53.124Z,12.90
2018-10-03T17:29:21.302Z,12.90
2018-10-03T17:31:49.604Z,12.77
2018-10-03T17:34:18.240Z,12.72
2018-10-03T17:36:48.476Z,12.76
2018-10-03T17:39:17.265Z,12.72
2018-10-03T17:41:46.024Z,12.60
2018-10-03T17:44:15.083Z,12.61
2018-10-03T17:46:43.256Z,12.59
2018-10-03T17:49:12.075Z,12.52
2018-10-03T17:51:40.330Z,12.44
2018-10-03T17:54:08.491Z,12.52
2018-10-03T17:56:36.641Z,12.46
2018-10-03T17:59:04.920Z,12.28
2018-10-03T18:01:34.290Z,12.29
2018-10-03T18:04:02.452Z,12.16
2018-10-03T18:06:30.680Z,12.00
2018-10-03T18:08:59.029Z,11.94
2018-10-03T18:11:27.204Z,12.02
2018-10-03T18:13:55.397Z,12.07
2018-10-03T18:16:23.704Z,12.06
2018-10-03T18:18:52.006Z,12.06
2018-10-03T18:21:20.270Z,12.05
2018-10-03T18:23:48.491Z,11.91
2018-10-03T18:26:16.889Z,11.85
2018-10-03T18:28:45.300Z,11.75
2018-10-03T18:31:14.256Z,11.72
2018-10-03T18:33:48.199Z,11.81
2018-10-03T18:36:16.357Z,11.72
2018-10-03T18:38:44.573Z,11.61
2018-10-03T18:41:12.823Z,11.56
2018-10-03T18:43:41.012Z,11.52
2018-10-03T18:46:09.309Z,11.43
2018-10-03T18:48:37.460Z,11.41
2018-10-03T18:51:06.030Z,11.37
2018-10-03T18:53:34.224Z,11.37
2018-10-03T18:56:02.656Z,11.35
2018-10-03T18:58:30.936Z,11.33
2018-10-03T19:00:59.104Z,11.28
2018-10-03T19:03:27.422Z,11.26
2018-10-03T19:05:55.782Z,11.25
2018-10-03T19:08:23.892Z,11.21
2018-10-03T19:10:52.174Z,11.20
2018-10-03T19:13:20.325Z,11.19
2018-10-03T19:15:48.515Z,11.11
2018-10-03T19:18:16.776Z,11.07
2018-10-03T19:20:46.201Z,11.04
2018-10-03T19:23:14.644Z,11.01
2018-10-03T19:25:43.296Z,10.97
2018-10-03T19:28:11.481Z,10.89
2018-10-03T19:30:39.622Z,10.85
2018-10-03T19:33:07.788Z,10.87
2018-10-03T19:35:36.134Z,10.88
2018-10-03T19:38:04.734Z,10.83
2018-10-03T19:40:32.887Z,10.82
2018-10-03T19:43:01.276Z,10.73
2018-10-03T19:45:29.527Z,10.63
2018-10-03T19:47:57.718Z,10.61
2018-10-03T19:50:26.236Z,10.70
2018-10-03T19:52:54.670Z,10.74
2018-10-03T19:55:23.038Z,10.74
2018-10-03T19:57:51.277Z,10.71
2018-10-03T20:00:19.452Z,10.59
2018-10-03T20:02:47.609Z,10.60
2018-10-03T20:05:15.812Z,10.55
2018-10-03T20:07:44.023Z,10.57
2018-10-03T20:10:12.164Z,10.59
2018-10-03T20:12:40.421Z,10.64
2018-10-03T20:15:08.656Z,10.54
2018-10-03T20:17:36.868Z,10.57
2018-10-03T20:20:05.160Z,10.63
2018-10-03T20:22:33.326Z,10.82
2018-10-03T20:25:01.519Z,10.80
2018-10-03T20:27:29.791Z,10.78
2018-10-03T20:29:57.945Z,10.80
2018-10-03T20:32:26.189Z,10.82
2018-10-03T20:34:54.408Z,10.81
2018-10-03T20:37:22.627Z,10.76
2018-10-03T20:39:50.943Z,10.75
2018-10-03T20:42:19.132Z,10.66
2018-10-03T20:44:48.015Z,10.38
2018-10-03T20:47:16.140Z,10.25
2018-10-03T20:49:44.435Z,10.25
2018-10-03T20:52:12.820Z,10.25
2018-10-03T20:54:41.122Z,10.16
2018-10-03T20:57:09.284Z,10.08
2018-10-03T20:59:37.503Z,10.05
2018-10-03T21:02:05.666Z,9.97
2018-10-03T21:04:33.859Z,9.77
2018-10-03T21:07:03.030Z,9.85
2018-10-03T21:09:31.235Z,9.87
2018-10-03T21:11:59.459Z,9.89
2018-10-03T21:14:27.651Z,9.74
2018-10-03T21:16:55.858Z,9.76
2018-10-03T21:19:24.112Z,9.74
2018-10-03T21:21:52.278Z,9.69
2018-10-03T21:24:20.693Z,9.59
2018-10-03T21:26:49.148Z,9.56
2018-10-03T21:29:17.327Z,9.51
2018-10-03T21:31:45.468Z,9.55
2018-10-03T21:34:13.706Z,9.61
2018-10-03T21:36:42.009Z,9.56
2018-10-03T21:39:10.215Z,9.51
2018-10-03T21:41:38.390Z,9.41
2018-10-03T21:44:06.676Z,9.32
2018-10-03T21:46:34.951Z,9.28
2018-10-03T21:49:03.136Z,9.28
2018-10-03T21:51:31.459Z,9.26
2018-10-03T21:53:59.732Z,9.29
2018-10-03T21:56:27.987Z,9.30
2018-10-03T21:58:56.195Z,9.27
2018-10-03T22:02:40.277Z,9.32
2018-10-03T22:05:09.539Z,9.33
2018-10-03T22:07:38.315Z,9.29
2018-10-03T22:10:06.824Z,9.25
2018-10-03T22:12:35.203Z,9.42
2018-10-03T22:15:03.495Z,9.47
2018-10-03T22:17:35.852Z,9.52
2018-10-03T22:20:04.083Z,9.42
2018-10-03T22:22:32.461Z,9.41
2018-10-03T22:25:00.636Z,9.52
2018-10-03T22:27:28.772Z,9.68
2018-10-03T22:29:56.975Z,9.79
2018-10-03T22:32:25.121Z,9.65
2018-10-03T22:34:53.587Z,9.28
2018-10-03T22:37:22.016Z,8.98
2018-10-03T22:39:50.347Z,8.77
2018-10-03T22:42:18.519Z,8.66
2018-10-03T22:44:46.798Z,8.56
2018-10-03T22:47:14.964Z,8.52
2018-10-03T22:49:43.191Z,8.43
2018-10-03T22:52:11.358Z,8.36
2018-10-03T22:54:39.643Z,8.36
2018-10-03T22:57:07.790Z,8.39
2018-10-03T22:59:35.952Z,8.41
2018-10-03T23:02:04.198Z,8.32
2018-10-03T23:04:32.433Z,8.36
2018-10-03T23:07:01.102Z,8.34
2018-10-03T23:09:29.294Z,8.28
2018-10-03T23:11:57.519Z,8.29
2018-10-03T23:14:25.682Z,8.28
2018-10-03T23:16:53.964Z,8.24
2018-10-03T23:19:22.416Z,8.28
2018-10-03T23:21:50.601Z,8.31
2018-10-03T23:24:18.754Z,8.37
2018-10-03T23:26:47.313Z,8.41
2018-10-03T23:29:15.732Z,8.30
2018-10-03T23:31:43.915Z,8.31
2018-10-03T23:34:12.151Z,8.27
2018-10-03T23:36:40.565Z,8.33
2018-10-03T23:39:10.722Z,8.34
2018-10-03T23:41:39.326Z,8.35
2018-10-03T23:44:07.814Z,8.40
2018-10-03T23:46:36.326Z,8.37
2018-10-03T23:49:04.707Z,8.28
2018-10-03T23:51:32.891Z,8.22
2018-10-03T23:54:01.149Z,8.11
2018-10-03T23:56:29.631Z,8.05
2018-10-03T23:58:57.866Z,7.98
